createdAt,value
2022-08-30T00:00:47.030Z,82.19
2022-08-30T00:39:19.691Z,81.27
2022-08-30T00:42:19.402Z,81.35
2022-08-30T00:45:51.936Z,81.59
2022-08-30T00:55:53.130Z,82.18
2022-08-30T01:06:10.762Z,81.86
2022-08-30T01:13:07.824Z,81.71
2022-08-30T01:41:10.428Z,81.58
2022-08-30T01:44:50.061Z,81.89
2022-08-30T02:11:14.305Z,81.21
2022-08-30T02:12:43.486Z,81.53
2022-08-30T02:27:02.491Z,80.69
2022-08-30T02:33:58.315Z,80.75
2022-08-30T03:11:36.084Z,81.20
2022-08-30T03:24:24.409Z,81.76
2022-08-30T03:27:22.787Z,81.91
2022-08-30T03:29:57.344Z,82.10
2022-08-30T03:32:24.691Z,82.10
2022-08-30T03:34:51.403Z,82.00
2022-08-30T03:37:18.434Z,82.23
2022-08-30T03:39:45.668Z,81.98
2022-08-30T03:42:14.530Z,81.78
2022-08-30T03:45:33.660Z,81.99
2022-08-30T03:48:17.977Z,82.23
2022-08-30T03:50:44.676Z,81.93
2022-08-30T03:53:11.397Z,82.32
2022-08-30T03:55:38.076Z,82.32
2022-08-30T03:58:04.791Z,82.28
2022-08-30T04:00:31.527Z,82.12
2022-08-30T04:02:58.371Z,81.86
2022-08-30T04:05:25.115Z,81.90
2022-08-30T04:08:11.677Z,81.83
2022-08-30T04:10:58.714Z,82.45
2022-08-30T04:13:25.509Z,82.12
2022-08-30T04:21:13.495Z,82.51
2022-08-30T04:24:15.207Z,82.73
2022-08-30T04:26:42.383Z,82.73
2022-08-30T04:29:15.240Z,82.94
2022-08-30T04:31:49.791Z,82.51
2022-08-30T04:34:30.127Z,82.53
2022-08-30T04:36:57.063Z,82.77
2022-08-30T04:39:26.565Z,82.68
2022-08-30T04:41:53.632Z,82.74
2022-08-30T04:44:20.581Z,82.83
2022-08-30T04:46:47.977Z,82.84
2022-08-30T04:49:14.978Z,83.02
2022-08-30T04:51:41.768Z,82.77
2022-08-30T05:00:45.848Z,82.86
2022-08-30T05:03:13.294Z,82.93
2022-08-30T05:05:40.190Z,83.02
2022-08-30T05:08:11.760Z,83.17
2022-08-30T05:10:47.374Z,83.16
2022-08-30T05:13:16.118Z,83.31
2022-08-30T05:15:43.146Z,83.25
2022-08-30T05:18:11.564Z,83.25
2022-08-30T05:20:41.045Z,83.00
2022-08-30T05:23:07.991Z,83.13
2022-08-30T05:25:47.495Z,83.07
2022-08-30T05:28:14.502Z,83.13
2022-08-30T05:33:52.376Z,83.27
2022-08-30T05:36:20.702Z,83.65
2022-08-30T05:38:47.571Z,83.44
2022-08-30T05:41:15.489Z,83.43
2022-08-30T05:43:42.332Z,83.61
2022-08-30T05:46:11.928Z,83.35
2022-08-30T05:48:40.306Z,83.41
2022-08-30T05:51:13.574Z,83.31
2022-08-30T05:53:41.239Z,83.31
2022-08-30T05:56:10.635Z,83.52
2022-08-30T05:58:37.705Z,83.40
2022-08-30T06:01:05.040Z,83.14
2022-08-30T06:03:37.725Z,83.78
2022-08-30T06:09:13.538Z,83.67
2022-08-30T06:11:41.313Z,83.80
2022-08-30T06:14:08.212Z,83.52
2022-08-30T06:16:35.931Z,83.69
2022-08-30T06:19:08.352Z,83.84
2022-08-30T06:44:13.444Z,83.76
2022-08-30T06:46:40.306Z,83.69
2022-08-30T06:49:07.906Z,83.63
2022-08-30T06:51:39.804Z,83.43
2022-08-30T06:54:09.271Z,83.50
2022-08-30T06:56:40.287Z,83.29
2022-08-30T06:59:09.382Z,83.48
2022-08-30T07:01:36.422Z,83.41
2022-08-30T07:04:03.717Z,83.46
2022-08-30T07:06:33.090Z,83.27
2022-08-30T07:08:59.975Z,83.04
2022-08-30T07:11:36.698Z,82.80
2022-08-30T07:14:04.969Z,82.98
2022-08-30T07:16:38.397Z,82.89
2022-08-30T07:19:06.455Z,82.48
2022-08-30T07:21:43.980Z,82.05
2022-08-30T07:24:11.961Z,82.19
2022-08-30T07:26:52.028Z,81.96
2022-08-30T07:29:20.543Z,81.88
2022-08-30T07:31:50.444Z,81.89
2022-08-30T07:34:19.819Z,82.12
2022-08-30T07:36:48.243Z,81.83
2022-08-30T07:39:15.071Z,82.06
2022-08-30T07:41:41.967Z,81.53
2022-08-30T07:44:09.530Z,81.36
2022-08-30T07:46:38.516Z,81.38
2022-08-30T07:49:11.444Z,81.18
2022-08-30T07:51:48.132Z,81.28
2022-08-30T07:54:15.855Z,81.34
2022-08-30T07:56:42.705Z,80.80
2022-08-30T07:59:09.718Z,80.49
2022-08-30T08:01:36.577Z,80.60
2022-08-30T08:04:03.638Z,80.61
2022-08-30T08:06:34.960Z,79.95
2022-08-30T08:09:02.610Z,80.01
2022-08-30T08:11:33.438Z,79.89
2022-08-30T08:14:01.478Z,80.01
2022-08-30T08:16:33.013Z,79.91
2022-08-30T08:18:59.977Z,79.25
2022-08-30T08:21:39.911Z,78.92
2022-08-30T08:24:06.861Z,78.99
2022-08-30T08:26:38.007Z,78.77
2022-08-30T08:29:09.018Z,78.63
2022-08-30T08:31:36.159Z,78.48
2022-08-30T09:03:40.068Z,78.98
2022-08-30T09:06:53.143Z,78.30
2022-08-30T09:13:54.404Z,76.34
2022-08-30T10:13:16.827Z,68.46
2022-08-30T10:15:51.060Z,68.80
2022-08-30T10:18:35.116Z,68.83
2022-08-30T10:25:08.402Z,67.71
2022-08-30T10:27:45.792Z,67.58
2022-08-30T10:30:14.612Z,67.23
2022-08-30T10:33:08.638Z,66.86
2022-08-30T10:35:48.211Z,66.65
2022-08-30T10:38:37.256Z,66.47
2022-08-30T10:41:29.700Z,65.91
2022-08-30T10:44:04.416Z,65.41
2022-08-30T10:46:37.743Z,65.10
2022-08-30T10:49:09.013Z,64.98
2022-08-30T10:51:55.796Z,64.82
2022-08-30T10:54:38.958Z,63.96
2022-08-30T10:57:05.888Z,64.07
2022-08-30T10:59:33.848Z,64.28
2022-08-30T11:02:09.828Z,63.91
2022-08-30T11:04:50.741Z,63.62
2022-08-30T11:07:37.637Z,63.21
2022-08-30T11:10:35.524Z,63.17
2022-08-30T11:13:20.990Z,62.13
2022-08-30T11:16:06.045Z,61.89
2022-08-30T11:18:42.191Z,61.95
2022-08-30T11:21:40.582Z,62.12
2022-08-30T11:24:22.073Z,61.23
2022-08-30T11:26:48.787Z,59.98
2022-08-30T11:29:36.065Z,59.78
2022-08-30T11:32:17.528Z,59.56
2022-08-30T11:34:48.341Z,59.35
2022-08-30T11:37:37.445Z,60.16
2022-08-30T11:40:26.394Z,59.88
2022-08-30T11:42:55.824Z,60.20
2022-08-30T11:45:24.683Z,59.25
2022-08-30T11:48:00.014Z,58.76
2022-08-30T11:50:29.871Z,58.82
2022-08-30T11:53:21.141Z,58.54
2022-08-30T11:56:12.579Z,58.82
2022-08-30T11:58:48.417Z,58.49
2022-08-30T12:01:40.924Z,58.50
2022-08-30T12:04:28.302Z,59.08
2022-08-30T12:07:00.828Z,58.81
2022-08-30T12:09:28.340Z,59.31
2022-08-30T12:12:10.373Z,59.27
2022-08-30T12:14:47.631Z,59.90
2022-08-30T12:17:41.841Z,60.23
2022-08-30T12:20:40.764Z,61.59
2022-08-30T12:23:38.182Z,62.51
2022-08-30T12:26:25.283Z,63.42
2022-08-30T12:28:53.011Z,64.09
2022-08-30T12:31:23.418Z,64.26
2022-08-30T12:33:58.742Z,64.84
2022-08-30T12:36:51.044Z,65.01
2022-08-30T12:39:28.197Z,65.06
2022-08-30T12:41:55.995Z,65.02
2022-08-30T12:44:33.569Z,64.93
2022-08-30T12:47:14.119Z,64.96
2022-08-30T12:49:49.022Z,64.96
2022-08-30T12:52:32.588Z,65.15
2022-08-30T12:55:22.586Z,64.98
2022-08-30T12:58:10.180Z,65.05
2022-08-30T13:00:43.386Z,64.63
2022-08-30T13:03:41.161Z,64.37
2022-08-30T13:06:21.149Z,64.05
2022-08-30T13:09:01.267Z,63.55
2022-08-30T13:11:49.061Z,63.67
2022-08-30T13:14:38.880Z,63.59
2022-08-30T13:17:38.988Z,63.68
2022-08-30T13:20:11.778Z,63.91
2022-08-30T13:23:06.429Z,63.86
2022-08-30T13:26:06.939Z,64.35
2022-08-30T13:29:08.809Z,65.52
2022-08-30T13:32:00.626Z,65.71
2022-08-30T13:34:37.800Z,66.06
2022-08-30T13:37:49.858Z,65.92
2022-08-30T13:44:48.246Z,66.18
2022-08-30T13:50:05.034Z,66.22
2022-08-30T13:52:34.409Z,66.41
2022-08-30T13:55:05.334Z,66.84
2022-08-30T13:57:54.576Z,66.89
2022-08-30T14:00:22.602Z,66.70
2022-08-30T14:02:57.243Z,66.67
2022-08-30T14:08:47.783Z,66.76
2022-08-30T14:11:21.135Z,67.08
2022-08-30T14:16:45.147Z,66.41
2022-08-30T14:19:14.093Z,66.52
2022-08-30T14:21:41.074Z,66.33
2022-08-30T14:27:38.170Z,65.83
2022-08-30T14:30:06.214Z,65.48
2022-08-30T14:32:33.540Z,65.56
2022-08-30T14:35:02.025Z,65.12
2022-08-30T14:37:30.993Z,64.42
2022-08-30T14:39:58.246Z,64.62
2022-08-30T14:42:27.556Z,64.42
2022-08-30T14:44:56.616Z,64.13
2022-08-30T14:47:28.621Z,64.00
2022-08-30T14:50:07.005Z,63.47
2022-08-30T14:52:45.344Z,63.06
2022-08-30T14:58:04.447Z,62.23
2022-08-30T15:00:31.412Z,62.18
2022-08-30T15:26:22.316Z,58.58
2022-08-30T15:28:54.781Z,58.34
2022-08-30T15:31:32.298Z,58.10
2022-08-30T15:33:59.687Z,57.88
2022-08-30T15:47:24.250Z,57.06
2022-08-30T15:50:14.458Z,57.40
2022-08-30T15:53:01.737Z,57.50
2022-08-30T15:55:43.837Z,58.01
2022-08-30T16:17:00.505Z,54.21
2022-08-30T16:23:04.154Z,54.50
2022-08-30T16:26:03.365Z,54.03
2022-08-30T16:51:54.766Z,52.21
2022-08-30T16:54:22.031Z,52.58
2022-08-30T16:56:58.782Z,52.57
2022-08-30T16:59:25.781Z,52.50
2022-08-30T17:01:53.808Z,52.47
2022-08-30T17:04:21.380Z,53.25
2022-08-30T17:06:49.966Z,53.65
2022-08-30T17:09:18.835Z,54.25
2022-08-30T17:11:45.875Z,55.32
2022-08-30T17:14:12.741Z,55.98
2022-08-30T17:16:41.482Z,56.82
2022-08-30T17:19:09.459Z,57.75
2022-08-30T17:21:39.016Z,58.65
2022-08-30T17:24:06.114Z,59.18
2022-08-30T17:26:34.903Z,59.71
2022-08-30T17:29:02.335Z,60.19
2022-08-30T17:31:58.147Z,60.96
2022-08-30T17:34:26.476Z,61.65
2022-08-30T17:36:55.050Z,62.41
2022-08-30T17:39:23.540Z,62.75
2022-08-30T17:41:51.572Z,63.12
2022-08-30T17:44:22.191Z,63.12
2022-08-30T17:46:52.782Z,63.64
2022-08-30T17:49:19.584Z,63.38
2022-08-30T17:51:47.832Z,63.42
2022-08-30T17:54:14.960Z,63.96
2022-08-30T17:56:42.443Z,64.14
2022-08-30T17:59:13.920Z,64.26
2022-08-30T18:01:44.359Z,64.88
2022-08-30T18:04:12.989Z,65.08
2022-08-30T18:06:40.064Z,65.33
2022-08-30T18:09:08.277Z,65.82
2022-08-30T18:11:36.759Z,65.72
2022-08-30T18:14:03.933Z,66.26
2022-08-30T18:16:33.280Z,66.25
2022-08-30T18:19:03.761Z,66.91
2022-08-30T18:21:31.434Z,67.10
2022-08-30T18:23:58.235Z,67.06
2022-08-30T18:26:25.424Z,67.54
2022-08-30T18:28:52.192Z,68.00
2022-08-30T18:31:25.227Z,68.01
2022-08-30T18:33:52.094Z,68.40
2022-08-30T18:36:18.941Z,68.59
2022-08-30T18:38:45.661Z,68.61
2022-08-30T18:41:16.816Z,68.71
2022-08-30T18:43:44.744Z,68.94
2022-08-30T18:46:15.043Z,69.33
2022-08-30T18:48:46.034Z,69.26
2022-08-30T18:51:18.904Z,69.68
2022-08-30T18:53:48.543Z,69.36
2022-08-30T18:56:18.413Z,69.71
2022-08-30T18:58:47.597Z,69.53
2022-08-30T19:01:22.820Z,70.09
2022-08-30T19:03:50.009Z,69.92
2022-08-30T19:07:21.511Z,70.23
2022-08-30T19:09:55.778Z,70.18
2022-08-30T19:12:27.724Z,70.14
2022-08-30T19:15:17.175Z,69.90
2022-08-30T19:28:12.243Z,70.02
2022-08-30T20:48:15.990Z,71.35
2022-08-30T20:50:56.195Z,71.55
2022-08-30T20:53:26.040Z,71.66
2022-08-30T21:00:21.449Z,71.67
2022-08-30T21:03:48.534Z,71.49
2022-08-30T21:06:26.408Z,71.51
2022-08-30T21:08:59.941Z,71.56
2022-08-30T21:12:34.087Z,71.36
2022-08-30T21:19:09.107Z,71.40
2022-08-30T21:22:16.284Z,71.28
2022-08-30T21:25:07.294Z,71.17
2022-08-30T21:27:44.415Z,71.20
2022-08-30T21:30:17.137Z,71.15
2022-08-30T21:32:59.886Z,71.38
2022-08-30T21:39:16.121Z,71.37
2022-08-30T21:42:04.643Z,71.03
2022-08-30T21:44:44.003Z,71.17
2022-08-30T21:47:14.743Z,71.20
2022-08-30T21:57:05.876Z,71.44
2022-08-30T22:01:23.935Z,71.32
2022-08-30T22:17:37.047Z,72.11
2022-08-30T22:20:42.356Z,71.87
2022-08-30T22:27:07.840Z,72.75
2022-08-30T22:30:13.418Z,72.92
2022-08-30T22:33:33.941Z,73.04
2022-08-30T22:36:23.735Z,73.34
2022-08-30T22:39:03.782Z,73.52
2022-08-30T22:57:41.211Z,73.49
2022-08-30T23:32:06.263Z,74.66
2022-08-30T23:35:26.790Z,74.81
2022-08-30T23:38:56.630Z,75.32
2022-08-30T23:42:01.622Z,75.08
2022-08-30T23:44:57.718Z,75.09
2022-08-30T23:47:49.987Z,75.28
2022-08-30T23:51:01.943Z,75.37
2022-08-30T23:54:58.972Z,75.69
